createdAt,value
2018-12-06T00:01:38.233Z,101423.56
2018-12-06T00:04:06.565Z,101423.66
2018-12-06T00:06:34.887Z,101424.14
2018-12-06T00:09:03.283Z,101422.77
2018-12-06T00:11:31.602Z,101417.22
2018-12-06T00:13:59.899Z,101416.81
2018-12-06T00:16:28.259Z,101415.13
2018-12-06T00:19:10.004Z,101417.77
2018-12-06T00:21:38.362Z,101409.59
2018-12-06T00:24:06.671Z,101407.41
2018-12-06T00:26:35.217Z,101408.70
2018-12-06T00:29:03.540Z,101402.66
2018-12-06T00:31:31.839Z,101392.67
2018-12-06T00:34:00.199Z,101390.89
2018-12-06T00:36:28.545Z,101402.48
2018-12-06T00:38:56.904Z,101399.50
2018-12-06T00:41:25.310Z,101396.13
2018-12-06T00:43:53.690Z,101398.40
2018-12-06T00:46:22.101Z,101394.99
2018-12-06T00:48:50.549Z,101397.27
2018-12-06T00:51:19.137Z,101392.60
2018-12-06T00:53:47.474Z,101398.24
2018-12-06T00:56:15.750Z,101395.76
2018-12-06T00:58:44.062Z,101390.70
2018-12-06T01:01:12.750Z,101392.08
2018-12-06T01:03:41.179Z,101390.48
2018-12-06T01:06:09.525Z,101392.17
2018-12-06T01:08:37.932Z,101393.86
2018-12-06T01:11:06.239Z,101379.30
2018-12-06T01:13:34.549Z,101388.00
2018-12-06T01:16:02.869Z,101378.50
2018-12-06T01:18:31.211Z,101378.99
2018-12-06T01:20:59.516Z,101378.20
2018-12-06T01:23:27.919Z,101375.67
2018-12-06T01:25:56.217Z,101370.53
2018-12-06T01:28:24.550Z,101368.04
2018-12-06T01:30:52.915Z,101362.49
2018-12-06T01:33:21.295Z,101354.86
2018-12-06T01:35:49.604Z,101351.39
2018-12-06T01:38:17.917Z,101349.80
2018-12-06T01:40:46.246Z,101342.95
2018-12-06T01:43:14.633Z,101341.77
2018-12-06T01:45:42.931Z,101335.23
2018-12-06T01:48:11.543Z,101334.03
2018-12-06T01:50:39.838Z,101328.09
2018-12-06T01:53:08.209Z,101327.38
2018-12-06T01:55:36.578Z,101335.59
2018-12-06T01:58:04.877Z,101327.47
2018-12-06T02:00:33.240Z,101327.95
2018-12-06T02:03:01.550Z,101325.37
2018-12-06T02:05:29.857Z,101325.37
2018-12-06T02:07:58.157Z,101321.91
2018-12-06T02:10:26.441Z,101324.09
2018-12-06T02:12:54.739Z,101334.79
2018-12-06T02:15:23.138Z,101327.06
2018-12-06T02:17:51.564Z,101325.37
2018-12-06T02:20:19.953Z,101324.58
2018-12-06T02:22:48.249Z,101326.81
2018-12-06T02:25:16.550Z,101311.36
2018-12-06T02:27:44.845Z,101312.73
2018-12-06T02:30:13.463Z,101324.01
2018-12-06T02:32:41.951Z,101308.47
2018-12-06T02:35:10.330Z,101298.25
2018-12-06T02:37:38.629Z,101300.03
2018-12-06T02:40:07.845Z,101298.03
2018-12-06T02:42:36.193Z,101291.77
2018-12-06T02:45:05.883Z,101282.83
2018-12-06T02:47:34.171Z,101280.88
2018-12-06T02:50:02.553Z,101272.75
2018-12-06T02:52:30.843Z,101260.36
2018-12-06T02:54:59.249Z,101247.88
2018-12-06T02:57:27.524Z,101250.14
2018-12-06T02:59:55.865Z,101234.28
2018-12-06T03:02:24.179Z,101232.11
2018-12-06T03:04:52.512Z,101222.20
2018-12-06T03:07:20.817Z,101219.63
2018-12-06T03:09:49.113Z,101207.63
2018-12-06T03:12:17.407Z,101205.94
2018-12-06T03:14:45.849Z,101201.50
2018-12-06T03:17:14.226Z,101190.80
2018-12-06T03:19:42.509Z,101192.89
2018-12-06T03:22:11.022Z,101186.53
2018-12-06T03:24:39.302Z,101190.56
2018-12-06T03:27:07.664Z,101180.98
2018-12-06T03:29:36.081Z,101175.83
2018-12-06T03:32:04.586Z,101163.43
2018-12-06T03:34:33.072Z,101161.74
2018-12-06T03:37:01.547Z,101166.58
2018-12-06T03:39:29.927Z,101154.09
2018-12-06T03:41:58.457Z,101145.97
2018-12-06T03:44:26.887Z,101143.47
2018-12-06T03:46:55.402Z,101140.98
2018-12-06T03:49:23.682Z,101137.68
2018-12-06T03:51:51.985Z,101128.30
2018-12-06T03:54:20.274Z,101122.11
2018-12-06T03:56:48.560Z,101121.95
2018-12-06T03:59:17.049Z,101114.78
2018-12-06T04:01:45.429Z,101104.59
2018-12-06T04:04:13.765Z,101095.73
2018-12-06T04:06:42.095Z,101092.92
2018-12-06T04:09:10.489Z,101092.27
2018-12-06T04:11:38.842Z,101082.48
2018-12-06T04:14:07.147Z,101087.87
2018-12-06T04:16:35.472Z,101080.70
2018-12-06T04:19:03.782Z,101082.15
2018-12-06T04:21:32.250Z,101067.16
2018-12-06T04:24:00.584Z,101068.94
2018-12-06T04:26:28.971Z,101073.36
2018-12-06T04:28:57.424Z,101069.53
2018-12-06T04:31:25.757Z,101068.33
2018-12-06T04:33:54.170Z,101061.14
2018-12-06T04:36:22.486Z,101061.63
2018-12-06T04:38:50.884Z,101049.22
2018-12-06T04:41:19.190Z,101051.95
2018-12-06T04:43:47.527Z,101045.66
2018-12-06T04:46:15.874Z,101038.44
2018-12-06T04:48:44.243Z,101047.95
2018-12-06T04:51:12.688Z,101035.53
2018-12-06T04:53:41.137Z,101033.50
2018-12-06T04:56:09.589Z,101035.35
2018-12-06T04:58:38.018Z,101037.60
2018-12-06T05:01:06.313Z,101042.51
2018-12-06T05:03:34.843Z,101037.87
2018-12-06T05:06:03.238Z,101036.73
2018-12-06T05:08:31.571Z,101037.77
2018-12-06T05:10:59.880Z,101032.27
2018-12-06T05:13:28.231Z,101032.83
2018-12-06T05:15:56.581Z,101035.03
2018-12-06T05:18:25.000Z,101032.05
2018-12-06T05:20:53.315Z,101029.95
2018-12-06T05:23:21.643Z,101036.07
2018-12-06T05:25:49.963Z,101038.25
2018-12-06T05:28:18.416Z,101036.63
2018-12-06T05:30:46.737Z,101033.23
2018-12-06T05:33:15.071Z,101042.34
2018-12-06T05:35:43.441Z,101035.15
2018-12-06T05:38:11.762Z,101035.22
2018-12-06T05:40:40.108Z,101040.38
2018-12-06T05:43:08.433Z,101034.41
2018-12-06T05:45:36.842Z,101044.44
2018-12-06T05:48:05.148Z,101033.78
2018-12-06T05:50:33.493Z,101033.37
2018-12-06T05:53:01.791Z,101035.22
2018-12-06T05:55:31.156Z,101038.76
2018-12-06T05:57:59.588Z,101034.14
2018-12-06T06:00:27.995Z,101027.36
2018-12-06T06:02:56.368Z,101023.59
2018-12-06T06:05:24.710Z,101024.14
2018-12-06T06:07:53.036Z,101026.80
2018-12-06T06:10:21.362Z,101035.83
2018-12-06T06:12:49.665Z,101031.55
2018-12-06T06:15:17.992Z,101026.47
2018-12-06T06:17:46.304Z,101040.26
2018-12-06T06:20:14.624Z,101035.64
2018-12-06T06:22:42.936Z,101030.55
2018-12-06T06:25:11.338Z,101031.47
2018-12-06T06:27:39.674Z,101020.73
2018-12-06T06:30:08.255Z,101023.80
2018-12-06T06:32:36.560Z,101024.58
2018-12-06T06:35:05.724Z,101021.11
2018-12-06T06:37:34.029Z,101018.12
2018-12-06T06:40:02.623Z,101022.03
2018-12-06T06:42:30.940Z,101027.73
2018-12-06T06:44:59.273Z,101027.00
2018-12-06T06:47:28.580Z,101027.07
2018-12-06T06:49:57.121Z,101019.73
2018-12-06T06:52:25.449Z,101011.57
2018-12-06T06:54:53.784Z,101012.46
2018-12-06T06:57:22.134Z,101011.16
2018-12-06T06:59:50.576Z,101009.87
2018-12-06T07:02:18.960Z,101011.64
2018-12-06T07:04:47.282Z,101013.81
2018-12-06T07:07:15.636Z,101013.34
2018-12-06T07:09:43.955Z,101004.23
2018-12-06T07:12:12.264Z,101005.45
2018-12-06T07:14:40.573Z,100997.97
2018-12-06T07:17:08.887Z,101003.07
2018-12-06T07:19:37.202Z,101003.03
2018-12-06T07:22:05.648Z,100999.49
2018-12-06T07:24:33.995Z,101000.78
2018-12-06T07:27:02.325Z,100994.73
2018-12-06T07:29:30.620Z,100988.28
2018-12-06T07:31:59.014Z,100977.07
2018-12-06T07:34:27.315Z,100972.80
2018-12-06T07:36:55.639Z,100972.97
2018-12-06T07:39:23.943Z,100968.35
2018-12-06T07:41:52.272Z,100965.50
2018-12-06T07:44:20.705Z,100967.41
2018-12-06T07:46:49.039Z,100955.55
2018-12-06T07:49:17.361Z,100945.83
2018-12-06T07:51:45.709Z,100937.33
2018-12-06T07:54:14.138Z,100933.59
2018-12-06T07:56:42.559Z,100922.10
2018-12-06T07:59:10.944Z,100909.14
2018-12-06T08:01:39.259Z,100900.77
2018-12-06T08:04:07.629Z,100891.25
2018-12-06T08:06:36.088Z,100893.77
2018-12-06T08:09:06.877Z,100895.88
2018-12-06T08:11:35.211Z,100918.78
2018-12-06T08:14:03.677Z,100943.03
2018-12-06T08:16:32.571Z,100932.59
2018-12-06T08:19:00.931Z,100934.52
2018-12-06T08:21:29.248Z,100922.28
2018-12-06T08:23:57.721Z,100914.16
2018-12-06T08:26:26.080Z,100924.13
2018-12-06T08:28:54.389Z,100917.73
2018-12-06T08:31:22.755Z,100937.36
2018-12-06T08:33:51.095Z,100954.92
2018-12-06T08:36:19.451Z,100940.29
2018-12-06T08:38:47.885Z,100944.70
2018-12-06T08:41:16.283Z,100949.94
2018-12-06T08:43:44.651Z,100948.77
2018-12-06T08:46:12.953Z,100954.95
2018-12-06T08:48:41.298Z,100970.69
2018-12-06T08:51:09.611Z,100977.41
2018-12-06T08:53:37.958Z,100981.89
2018-12-06T08:56:06.265Z,100981.16
2018-12-06T08:58:34.623Z,100988.22
2018-12-06T09:01:02.919Z,100985.00
2018-12-06T09:03:31.251Z,100994.27
2018-12-06T09:05:59.564Z,100995.27
2018-12-06T09:08:27.927Z,101006.63
2018-12-06T09:10:56.231Z,101018.37
2018-12-06T09:13:24.551Z,101017.26
2018-12-06T09:15:52.862Z,101009.55
2018-12-06T09:18:21.198Z,101002.31
2018-12-06T09:20:49.737Z,101008.55
2018-12-06T09:23:18.068Z,101006.94
2018-12-06T09:25:46.435Z,101009.58
2018-12-06T09:28:14.889Z,101009.23
2018-12-06T09:30:43.319Z,101010.59
2018-12-06T09:33:11.648Z,101019.65
2018-12-06T09:35:40.753Z,101007.52
2018-12-06T09:38:09.209Z,101011.41
2018-12-06T09:40:37.576Z,101006.64
2018-12-06T09:43:06.043Z,101000.64
2018-12-06T09:45:34.371Z,101002.41
2018-12-06T09:48:02.709Z,101002.87
2018-12-06T09:50:31.026Z,100996.45
2018-12-06T09:52:59.353Z,100997.75
2018-12-06T09:55:27.670Z,100999.46
2018-12-06T09:57:55.979Z,100995.10
2018-12-06T10:00:24.301Z,100993.05
2018-12-06T10:02:52.616Z,100985.33
2018-12-06T10:05:20.948Z,100990.19
2018-12-06T10:07:49.248Z,100992.83
2018-12-06T10:10:17.570Z,100989.95
2018-12-06T10:12:45.895Z,100984.03
2018-12-06T10:15:14.351Z,100991.09
2018-12-06T10:17:42.663Z,100982.98
2018-12-06T10:20:11.117Z,100986.05
2018-12-06T10:22:39.421Z,100979.63
2018-12-06T10:25:07.856Z,100972.27
2018-12-06T10:27:36.163Z,100973.63
2018-12-06T10:30:06.879Z,100969.79
2018-12-06T10:32:35.271Z,100961.66
2018-12-06T10:35:03.773Z,100963.02
2018-12-06T10:37:32.085Z,100967.78
2018-12-06T10:40:00.426Z,100954.41
2018-12-06T10:42:28.823Z,100954.94
2018-12-06T10:44:57.134Z,100949.36
2018-12-06T10:47:25.465Z,100948.02
2018-12-06T10:49:53.770Z,100941.64
2018-12-06T10:52:22.103Z,100937.34
2018-12-06T10:54:50.428Z,100939.16
2018-12-06T10:57:18.758Z,100932.37
2018-12-06T10:59:47.071Z,100921.78
2018-12-06T11:02:20.905Z,100922.05
2018-12-06T11:04:49.209Z,100923.97
2018-12-06T11:07:17.557Z,100917.25
2018-12-06T11:09:45.970Z,100898.43
2018-12-06T11:12:14.292Z,100897.31
2018-12-06T11:14:42.666Z,100893.98
2018-12-06T11:17:11.033Z,100894.14
2018-12-06T11:19:39.360Z,100892.06
2018-12-06T11:22:07.876Z,100894.72
2018-12-06T11:25:06.424Z,100878.84
2018-12-06T11:27:34.749Z,100867.78
2018-12-06T11:30:09.612Z,100873.23
2018-12-06T11:32:37.932Z,100878.73
2018-12-06T11:35:06.424Z,100883.64
2018-12-06T11:37:34.724Z,100889.86
2018-12-06T11:40:05.138Z,100887.22
2018-12-06T11:42:33.428Z,100894.55
2018-12-06T11:45:01.749Z,100889.72
2018-12-06T11:47:30.115Z,100894.86
2018-12-06T11:49:58.484Z,100879.19
2018-12-06T11:52:26.781Z,100873.59
2018-12-06T11:54:55.112Z,100869.73
2018-12-06T11:57:23.422Z,100868.08
2018-12-06T11:59:51.753Z,100868.59
2018-12-06T12:02:20.040Z,100874.24
2018-12-06T12:04:48.353Z,100862.14
2018-12-06T12:07:16.665Z,100865.98
2018-12-06T12:09:44.976Z,100862.23
2018-12-06T12:12:13.355Z,100874.39
2018-12-06T12:14:41.668Z,100869.30
2018-12-06T12:17:09.975Z,100880.56
2018-12-06T12:19:38.292Z,100882.70
2018-12-06T12:22:06.591Z,100879.64
2018-12-06T12:24:34.916Z,100875.28
2018-12-06T12:27:03.211Z,100866.70
2018-12-06T12:29:31.619Z,100872.83
2018-12-06T12:31:59.927Z,100878.43
2018-12-06T12:34:28.267Z,100867.63
2018-12-06T12:36:56.573Z,100873.66
2018-12-06T12:39:24.900Z,100871.98
2018-12-06T12:41:53.195Z,100867.31
2018-12-06T12:44:21.508Z,100872.08
2018-12-06T12:46:49.821Z,100868.61
2018-12-06T12:49:18.151Z,100863.87
2018-12-06T12:51:46.446Z,100873.43
2018-12-06T12:54:14.768Z,100877.64
2018-12-06T12:56:43.176Z,100885.39
2018-12-06T12:59:11.477Z,100880.61
2018-12-06T13:01:39.791Z,100887.10
2018-12-06T13:04:08.170Z,100877.55
2018-12-06T13:06:36.459Z,100864.98
2018-12-06T13:09:06.776Z,100857.62
2018-12-06T13:11:35.077Z,100854.55
2018-12-06T13:14:03.435Z,100861.42
2018-12-06T13:16:31.803Z,100847.08
2018-12-06T13:19:00.105Z,100844.06
2018-12-06T13:21:28.655Z,100826.31
2018-12-06T13:23:56.961Z,100816.77
2018-12-06T13:26:25.328Z,100816.72
2018-12-06T13:28:53.643Z,100816.21
2018-12-06T13:31:21.940Z,100824.05
2018-12-06T13:33:50.354Z,100822.48
2018-12-06T13:36:18.655Z,100821.73
2018-12-06T13:38:47.017Z,100823.22
2018-12-06T13:41:15.387Z,100811.16
2018-12-06T13:43:43.688Z,100814.59
2018-12-06T13:46:12.242Z,100821.97
2018-12-06T13:48:40.626Z,100808.52
2018-12-06T13:51:08.915Z,100800.69
2018-12-06T13:53:37.232Z,100806.72
2018-12-06T13:56:05.652Z,100810.19
2018-12-06T13:58:34.121Z,100795.87
2018-12-06T14:01:02.727Z,100787.62
2018-12-06T14:03:31.217Z,100786.32
2018-12-06T14:05:59.532Z,100768.98
2018-12-06T14:08:27.836Z,100763.70
2018-12-06T14:10:56.167Z,100765.87
2018-12-06T14:13:24.478Z,100764.58
2018-12-06T14:15:52.770Z,100760.64
2018-12-06T14:18:21.088Z,100771.07
2018-12-06T14:20:49.409Z,100768.05
2018-12-06T14:23:17.965Z,100758.97
2018-12-06T14:25:46.364Z,100781.08
2018-12-06T14:28:14.673Z,100783.22
2018-12-06T14:30:42.992Z,100797.91
2018-12-06T14:33:11.294Z,100784.05
2018-12-06T14:35:39.693Z,100784.05
2018-12-06T14:38:08.035Z,100799.25
2018-12-06T14:40:36.339Z,100800.97
2018-12-06T14:43:04.782Z,100800.14
2018-12-06T14:45:33.362Z,100806.25
2018-12-06T14:48:01.674Z,100803.28
2018-12-06T14:50:29.987Z,100797.25
2018-12-06T14:52:58.290Z,100801.20
2018-12-06T14:55:26.650Z,100800.37
2018-12-06T14:57:54.949Z,100806.48
2018-12-06T15:00:23.329Z,100813.02
2018-12-06T15:02:51.629Z,100814.83
2018-12-06T15:05:19.942Z,100797.99
2018-12-06T15:07:48.261Z,100799.89
2018-12-06T15:10:16.567Z,100805.51
2018-12-06T15:12:44.895Z,100804.30
2018-12-06T15:15:13.188Z,100809.12
2018-12-06T15:17:41.515Z,100815.23
2018-12-06T15:20:09.879Z,100807.45
2018-12-06T15:22:38.229Z,100810.41
2018-12-06T15:25:06.968Z,100819.00
2018-12-06T15:27:35.397Z,100816.31
2018-12-06T15:30:05.725Z,100837.91
2018-12-06T15:32:34.049Z,100847.80
2018-12-06T15:35:02.361Z,100850.30
2018-12-06T15:37:30.660Z,100854.16
2018-12-06T15:39:58.985Z,100857.13
2018-12-06T15:42:27.298Z,100858.38
2018-12-06T15:44:55.618Z,100850.06
2018-12-06T15:47:23.912Z,100838.70
2018-12-06T15:49:52.235Z,100833.88
2018-12-06T15:52:20.546Z,100829.85
2018-12-06T15:54:48.995Z,100831.09
2018-12-06T15:57:17.301Z,100824.46
2018-12-06T15:59:45.611Z,100830.86
2018-12-06T16:02:13.916Z,100829.05
2018-12-06T16:04:42.235Z,100835.07
2018-12-06T16:07:10.566Z,100836.67
2018-12-06T16:09:38.870Z,100842.19
2018-12-06T16:12:07.179Z,100837.32
2018-12-06T16:14:35.499Z,100833.33
2018-12-06T16:17:03.792Z,100829.38
2018-12-06T16:19:32.123Z,100822.84
2018-12-06T16:22:00.443Z,100820.20
2018-12-06T16:24:28.763Z,100804.17
2018-12-06T16:26:57.078Z,100790.27
2018-12-06T16:29:25.397Z,100798.84
2018-12-06T16:31:53.796Z,100799.63
2018-12-06T16:34:22.124Z,100803.93
2018-12-06T16:36:50.436Z,100806.58
2018-12-06T16:39:18.889Z,100795.36
2018-12-06T16:41:46.756Z,100794.48
2018-12-06T16:44:14.625Z,100794.95
2018-12-06T16:46:42.484Z,100786.33
2018-12-06T16:49:10.536Z,100789.86
2018-12-06T16:51:38.418Z,100793.80
2018-12-06T16:54:06.301Z,100788.23
2018-12-06T16:56:34.221Z,100791.30
2018-12-06T16:59:02.130Z,100792.66
2018-12-06T17:01:30.071Z,100788.80
2018-12-06T17:03:57.937Z,100775.05
2018-12-06T17:06:25.815Z,100769.06
2018-12-06T17:08:53.673Z,100768.75
2018-12-06T17:11:21.546Z,100773.98
2018-12-06T17:13:49.408Z,100787.84
2018-12-06T17:16:17.289Z,100792.30
2018-12-06T17:18:45.662Z,100779.78
2018-12-06T17:21:14.041Z,100785.48
2018-12-06T17:23:42.352Z,100786.41
2018-12-06T17:26:10.247Z,100778.71
2018-12-06T17:28:38.568Z,100780.48
2018-12-06T17:31:06.945Z,100762.77
2018-12-06T17:33:35.262Z,100766.30
2018-12-06T17:36:03.596Z,100779.32
2018-12-06T17:38:31.892Z,100791.52
2018-12-06T17:41:00.215Z,100784.64
2018-12-06T17:43:28.511Z,100785.11
2018-12-06T17:45:56.838Z,100794.70
2018-12-06T17:48:25.250Z,100796.05
2018-12-06T17:50:53.581Z,100801.75
2018-12-06T17:53:21.879Z,100800.92
2018-12-06T17:55:53.207Z,100804.44
2018-12-06T17:58:21.575Z,100795.86
2018-12-06T18:00:49.959Z,100792.01
2018-12-06T18:03:18.269Z,100793.81
2018-12-06T18:05:46.609Z,100786.49
2018-12-06T18:08:14.951Z,100792.19
2018-12-06T18:10:43.267Z,100777.11
2018-12-06T18:13:11.567Z,100782.39
2018-12-06T18:15:39.532Z,100793.29
2018-12-06T18:18:07.451Z,100792.45
2018-12-06T18:20:35.366Z,100777.75
2018-12-06T18:23:03.226Z,100788.61
2018-12-06T18:25:31.114Z,100778.72
2018-12-06T18:27:58.986Z,100770.55
2018-12-06T18:30:27.304Z,100776.70
2018-12-06T18:32:55.635Z,100772.89
2018-12-06T18:35:23.494Z,100776.41
2018-12-06T18:37:51.397Z,100763.43
2018-12-06T18:40:19.820Z,100755.64
2018-12-06T18:42:47.736Z,100762.59
2018-12-06T18:45:15.593Z,100774.74
2018-12-06T18:47:43.454Z,100761.33
2018-12-06T18:50:11.367Z,100768.33
2018-12-06T18:52:39.243Z,100771.84
2018-12-06T18:55:07.111Z,100769.70
2018-12-06T18:57:35.486Z,100767.99
2018-12-06T19:00:04.971Z,100767.99
2018-12-06T19:02:33.336Z,100761.11
2018-12-06T19:05:01.633Z,100752.06
2018-12-06T19:07:30.028Z,100752.06
2018-12-06T19:09:58.382Z,100752.95
2018-12-06T19:12:26.693Z,100746.48
2018-12-06T19:14:55.014Z,100749.13
2018-12-06T19:17:23.351Z,100747.45
2018-12-06T19:19:51.676Z,100740.11
2018-12-06T19:22:19.988Z,100736.25
2018-12-06T19:24:48.319Z,100727.16
2018-12-06T19:27:16.638Z,100727.61
2018-12-06T19:29:44.948Z,100726.31
2018-12-06T19:32:13.329Z,100725.05
2018-12-06T19:34:41.936Z,100737.63
2018-12-06T19:37:10.275Z,100738.97
2018-12-06T19:39:38.600Z,100738.55
2018-12-06T19:42:06.934Z,100733.84
2018-12-06T19:44:35.256Z,100726.55
2018-12-06T19:47:03.580Z,100734.00
2018-12-06T19:49:31.900Z,100728.00
2018-12-06T19:52:00.372Z,100737.17
2018-12-06T19:54:28.691Z,100738.48
2018-12-06T19:56:57.001Z,100734.19
2018-12-06T19:59:25.338Z,100731.63
2018-12-06T20:01:53.642Z,100713.47
2018-12-06T20:04:21.980Z,100713.92
2018-12-06T20:06:50.286Z,100712.20
2018-12-06T20:09:18.616Z,100707.00
2018-12-06T20:11:46.927Z,100702.22
2018-12-06T20:14:15.261Z,100697.44
2018-12-06T20:16:43.572Z,100694.00
2018-12-06T20:19:11.896Z,100696.67
2018-12-06T20:21:40.223Z,100690.20
2018-12-06T20:24:08.553Z,100690.24
2018-12-06T20:26:36.894Z,100690.77
2018-12-06T20:29:05.286Z,100691.23
2018-12-06T20:31:33.632Z,100700.78
2018-12-06T20:34:01.956Z,100686.09
2018-12-06T20:36:30.281Z,100690.48
2018-12-06T20:38:58.607Z,100693.12
2018-12-06T20:41:26.928Z,100700.12
2018-12-06T20:43:55.256Z,100701.00
2018-12-06T20:46:23.569Z,100704.05
2018-12-06T20:48:51.904Z,100699.31
2018-12-06T20:51:20.228Z,100688.03
2018-12-06T20:53:48.564Z,100694.53
2018-12-06T20:56:16.888Z,100697.98
2018-12-06T20:58:45.211Z,100690.59
2018-12-06T21:01:13.530Z,100692.31
2018-12-06T21:03:41.833Z,100689.30
2018-12-06T21:06:10.163Z,100688.88
2018-12-06T21:08:38.484Z,100687.99
2018-12-06T21:11:06.802Z,100681.48
2018-12-06T21:13:35.151Z,100688.41
2018-12-06T21:16:03.528Z,100680.19
2018-12-06T21:18:31.843Z,100678.01
2018-12-06T21:21:00.176Z,100684.52
2018-12-06T21:23:28.526Z,100677.55
2018-12-06T21:25:56.851Z,100661.91
2018-12-06T21:28:25.300Z,100666.69
2018-12-06T21:30:53.628Z,100663.21
2018-12-06T21:33:21.949Z,100671.05
2018-12-06T21:35:50.304Z,100665.00
2018-12-06T21:38:18.622Z,100667.18
2018-12-06T21:40:46.960Z,100666.76
2018-12-06T21:43:15.276Z,100668.06
2018-12-06T21:45:43.597Z,100661.63
2018-12-06T21:48:11.917Z,100665.14
2018-12-06T21:50:40.319Z,100661.23
2018-12-06T21:53:08.692Z,100660.42
2018-12-06T21:55:37.000Z,100660.45
2018-12-06T21:58:05.457Z,100661.38
2018-12-06T22:00:33.785Z,100650.99
2018-12-06T22:03:02.106Z,100646.67
2018-12-06T22:05:31.350Z,100641.47
2018-12-06T22:07:59.741Z,100639.28
2018-12-06T22:10:28.059Z,100639.70
2018-12-06T22:12:56.499Z,100637.92
2018-12-06T22:15:24.817Z,100640.09
2018-12-06T22:17:53.130Z,100637.92
2018-12-06T22:20:21.456Z,100636.23
2018-12-06T22:22:49.787Z,100640.16
2018-12-06T22:25:18.094Z,100633.66
2018-12-06T22:27:46.427Z,100627.19
2018-12-06T22:30:14.818Z,100631.16
2018-12-06T22:32:43.138Z,100633.36
2018-12-06T22:35:11.666Z,100625.62
2018-12-06T22:37:39.997Z,100618.69
2018-12-06T22:40:08.355Z,100626.98
2018-12-06T22:42:36.688Z,100605.73
2018-12-06T22:45:22.599Z,100607.07
2018-12-06T22:47:51.120Z,100601.44
2018-12-06T22:50:19.415Z,100598.02
2018-12-06T22:52:47.806Z,100592.00
2018-12-06T22:55:16.214Z,100602.86
2018-12-06T22:57:44.526Z,100604.65
2018-12-06T23:00:14.861Z,100600.78
2018-12-06T23:02:43.219Z,100591.69
2018-12-06T23:05:11.533Z,100589.09
2018-12-06T23:07:39.907Z,100575.25
2018-12-06T23:10:08.409Z,100581.79
2018-12-06T23:12:36.717Z,100581.84
2018-12-06T23:15:05.867Z,100576.27
2018-12-06T23:17:34.164Z,100569.34
2018-12-06T23:20:02.931Z,100561.98
2018-12-06T23:22:31.240Z,100548.95
2018-12-06T23:24:59.562Z,100547.25
2018-12-06T23:27:27.884Z,100552.06
2018-12-06T23:29:56.264Z,100555.55
2018-12-06T23:32:24.650Z,100557.75
2018-12-06T23:34:53.195Z,100566.87
2018-12-06T23:37:21.492Z,100563.44
2018-12-06T23:39:49.808Z,100561.77
2018-12-06T23:42:18.121Z,100559.19
2018-12-06T23:44:46.447Z,100560.09
2018-12-06T23:47:14.768Z,100552.33
2018-12-06T23:49:43.072Z,100547.59
2018-12-06T23:52:11.399Z,100541.98
2018-12-06T23:54:39.723Z,100540.28
2018-12-06T23:57:08.036Z,100543.33
2018-12-06T23:59:36.413Z,100539.88
